createdAt,value
2016-04-03T00:00:09.962Z,18.15
2016-04-03T00:01:09.700Z,18.12
2016-04-03T00:02:09.873Z,18.23
2016-04-03T00:03:09.626Z,18.13
2016-04-03T00:04:09.551Z,18.18
2016-04-03T00:05:09.538Z,18.15
2016-04-03T00:06:09.494Z,18.21
2016-04-03T00:07:09.450Z,18.12
2016-04-03T00:08:09.422Z,18.11
2016-04-03T00:09:09.330Z,18.16
2016-04-03T00:10:12.302Z,18.16
2016-04-03T00:11:09.257Z,18.19
2016-04-03T00:12:15.463Z,18.16
2016-04-03T00:13:09.169Z,18.19
2016-04-03T00:14:09.110Z,18.18
2016-04-03T00:15:12.283Z,18.11
2016-04-03T00:16:09.005Z,18.12
2016-04-03T00:17:08.961Z,18.21
2016-04-03T00:18:09.433Z,18.12
2016-04-03T00:19:11.889Z,18.05
2016-04-03T00:20:09.032Z,18
2016-04-03T00:21:14.785Z,18.03
2016-04-03T00:22:08.741Z,18.15
2016-04-03T00:23:08.696Z,18.05
2016-04-03T00:24:08.652Z,18.13
2016-04-03T00:25:08.607Z,18.18
2016-04-03T00:26:08.549Z,18.05
2016-04-03T00:27:08.520Z,18
2016-04-03T00:28:08.460Z,18.13
2016-04-03T00:29:08.635Z,18.21
2016-04-03T00:30:14.387Z,18.09
2016-04-03T00:31:11.327Z,18.09
2016-04-03T00:32:08.283Z,18
2016-04-03T00:33:11.254Z,18.11
2016-04-03T00:34:08.179Z,18.18
2016-04-03T00:35:08.134Z,18.05
2016-04-03T00:36:11.090Z,18.02
2016-04-03T00:37:08.061Z,18.09
2016-04-03T00:38:10.986Z,18.12
2016-04-03T00:39:07.958Z,18.11
2016-04-03T00:40:10.898Z,18.09
2016-04-03T00:41:07.870Z,18.09
2016-04-03T00:42:07.826Z,18.09
2016-04-03T00:43:07.781Z,18.02
2016-04-03T00:44:07.722Z,18.11
2016-04-03T00:45:07.864Z,18.06
2016-04-03T00:46:07.633Z,18.09
2016-04-03T00:47:07.589Z,18.06
2016-04-03T00:48:07.529Z,18.09
2016-04-03T00:49:07.485Z,18.09
2016-04-03T00:50:07.440Z,18.05
2016-04-03T00:51:07.599Z,18.11
2016-04-03T00:52:07.352Z,18.13
2016-04-03T00:53:07.511Z,18.06
2016-04-03T00:54:07.264Z,18.09
2016-04-03T00:55:07.220Z,18.05
2016-04-03T00:56:07.160Z,18.09
2016-04-03T00:57:07.131Z,18.15
2016-04-03T00:58:07.056Z,18.11
2016-04-03T00:59:07.043Z,18.13
2016-04-03T01:00:06.998Z,18.05
2016-04-03T01:01:09.940Z,18.06
2016-04-03T01:02:06.864Z,18.09
2016-04-03T01:03:06.835Z,18.11
2016-04-03T01:04:07.104Z,18.08
2016-04-03T01:05:06.732Z,18.09
2016-04-03T01:06:06.703Z,18.08
2016-04-03T01:07:09.659Z,18.06
2016-04-03T01:08:06.625Z,18.05
2016-04-03T01:09:09.749Z,18.16
2016-04-03T01:10:06.516Z,18.09
2016-04-03T01:11:07.301Z,18.11
2016-04-03T01:12:06.632Z,18.03
2016-04-03T01:13:06.368Z,18.05
2016-04-03T01:14:06.324Z,18.02
2016-04-03T01:15:06.483Z,18.05
2016-04-03T01:16:12.268Z,18.06
2016-04-03T01:17:06.196Z,18.08
2016-04-03T01:18:06.167Z,18.09
2016-04-03T01:19:09.092Z,18.09
2016-04-03T01:20:09.047Z,18.02
2016-04-03T01:21:06.207Z,18.06
2016-04-03T01:22:05.974Z,18.05
2016-04-03T01:23:05.946Z,18.08
2016-04-03T01:24:05.855Z,18.06
2016-04-03T01:25:05.827Z,18.08
2016-04-03T01:26:06.064Z,18.06
2016-04-03T01:27:06.052Z,18.08
2016-04-03T01:28:08.694Z,18.08
2016-04-03T01:29:05.635Z,18.09
2016-04-03T01:30:05.856Z,18.05
2016-04-03T01:31:08.562Z,18.05
2016-04-03T01:32:08.502Z,18.02
2016-04-03T01:33:08.660Z,18
2016-04-03T01:34:05.398Z,18.05
2016-04-03T01:35:05.353Z,18.08
2016-04-03T01:36:05.309Z,18.12
2016-04-03T01:37:05.296Z,18.06
2016-04-03T01:38:08.205Z,18.05
2016-04-03T01:39:05.162Z,18.05
2016-04-03T01:40:05.117Z,18.08
2016-04-03T01:41:05.057Z,18.06
2016-04-03T01:42:08.325Z,18.05
2016-04-03T01:43:05.047Z,18.06
2016-04-03T01:44:05.128Z,18.06
2016-04-03T01:45:07.880Z,18.13
2016-04-03T01:46:05.024Z,18.08
2016-04-03T01:47:04.792Z,18.06
2016-04-03T01:48:07.733Z,18.05
2016-04-03T01:49:04.704Z,18.09
2016-04-03T01:50:04.660Z,18.06
2016-04-03T01:51:04.600Z,18.05
2016-04-03T01:52:04.868Z,18.06
2016-04-03T01:53:04.511Z,18.06
2016-04-03T01:54:07.467Z,18.08
2016-04-03T01:55:10.439Z,18.13
2016-04-03T01:56:04.379Z,18.09
2016-04-03T01:57:04.335Z,18.08
2016-04-03T01:58:04.274Z,18.08
2016-04-03T01:59:04.262Z,18.05
2016-04-03T02:00:04.218Z,18.09
2016-04-03T02:01:04.174Z,18
2016-04-03T02:02:04.099Z,18.06
2016-04-03T02:03:04.054Z,18.03
2016-04-03T02:04:04.213Z,18.09
2016-04-03T02:05:03.950Z,18.05
2016-04-03T02:06:06.921Z,18.09
2016-04-03T02:07:09.862Z,18.08
2016-04-03T02:08:06.837Z,18.05
2016-04-03T02:09:03.794Z,18.11
2016-04-03T02:10:04.031Z,18.05
2016-04-03T02:11:06.690Z,18.09
2016-04-03T02:12:03.834Z,18.08
2016-04-03T02:13:03.570Z,18.06
2016-04-03T02:14:03.573Z,18.06
2016-04-03T02:15:03.481Z,18.05
2016-04-03T02:16:03.453Z,18.06
2016-04-03T02:17:03.409Z,18.06
2016-04-03T02:18:03.364Z,18.06
2016-04-03T02:19:03.508Z,18.08
2016-04-03T02:20:03.276Z,18.03
2016-04-03T02:21:03.263Z,18.11
2016-04-03T02:22:03.188Z,18.06
2016-04-03T02:23:06.332Z,18.08
2016-04-03T02:24:03.069Z,18.05
2016-04-03T02:25:06.040Z,18
2016-04-03T02:26:03.011Z,18.06
2016-04-03T02:27:02.935Z,18.06
2016-04-03T02:28:02.876Z,18.09
2016-04-03T02:29:05.863Z,18.06
2016-04-03T02:30:03.101Z,18.06
2016-04-03T02:31:06.103Z,18.03
2016-04-03T02:32:05.762Z,18.12
2016-04-03T02:33:05.670Z,18.09
2016-04-03T02:34:08.892Z,18.09
2016-04-03T02:35:02.567Z,18.03
2016-04-03T02:36:02.570Z,18.09
2016-04-03T02:37:05.698Z,18.06
2016-04-03T02:38:02.418Z,18.08
2016-04-03T02:39:02.593Z,18.05
2016-04-03T02:40:02.345Z,18.06
2016-04-03T02:41:02.286Z,18.05
2016-04-03T02:42:02.742Z,18.09
2016-04-03T02:43:05.213Z,18.05
2016-04-03T02:44:05.169Z,18.06
2016-04-03T02:45:05.094Z,18.11
2016-04-03T02:46:05.065Z,18.03
2016-04-03T02:47:02.022Z,18.08
2016-04-03T02:48:01.945Z,18.02
2016-04-03T02:49:01.917Z,18.03
2016-04-03T02:50:01.857Z,18.05
2016-04-03T02:51:01.813Z,18.03
2016-04-03T02:52:04.768Z,18.06
2016-04-03T02:53:01.927Z,18.05
2016-04-03T02:54:04.899Z,18.05
2016-04-03T02:55:04.636Z,18.13
2016-04-03T02:56:01.592Z,18.06
2016-04-03T02:57:04.563Z,18.02
2016-04-03T02:58:04.801Z,17.98
2016-04-03T02:59:01.444Z,18.09
2016-04-03T03:00:01.400Z,18.08
2016-04-03T03:01:01.340Z,18.08
2016-04-03T03:02:04.343Z,18.02
2016-04-03T03:03:04.314Z,18.05
2016-04-03T03:04:04.832Z,18.02
2016-04-03T03:05:04.179Z,18.05
2016-04-03T03:06:01.150Z,18.06
2016-04-03T03:07:01.059Z,18.08
2016-04-03T03:08:04.248Z,17.98
2016-04-03T03:09:00.986Z,18.05
2016-04-03T03:10:00.942Z,18.03
2016-04-03T03:11:00.882Z,18.12
2016-04-03T03:12:00.854Z,18.03
2016-04-03T03:13:00.809Z,18.08
2016-04-03T03:14:00.765Z,18.05
2016-04-03T03:15:00.705Z,18.05
2016-04-03T03:16:03.661Z,18.08
2016-04-03T03:17:00.633Z,18.09
2016-04-03T03:18:00.619Z,18.11
2016-04-03T03:19:00.529Z,18.08
2016-04-03T03:20:06.469Z,18.11
2016-04-03T03:21:00.425Z,18.06
2016-04-03T03:22:03.694Z,17.98
2016-04-03T03:23:03.336Z,18.11
2016-04-03T03:24:12.308Z,18.06
2016-04-03T03:25:03.248Z,18.11
2016-04-03T03:26:00.188Z,18.03
2016-04-03T03:27:00.160Z,18.12
2016-04-03T03:28:00.115Z,18.12
2016-04-03T03:29:00.352Z,18.03
2016-04-03T03:30:02.996Z,18.11
2016-04-03T03:30:59.967Z,18.11
2016-04-03T03:32:02.908Z,18.12
2016-04-03T03:33:02.879Z,18.11
2016-04-03T03:33:59.851Z,18.08
2016-04-03T03:34:59.760Z,18.03
2016-04-03T03:35:59.746Z,18.05
2016-04-03T03:36:59.671Z,18.11
2016-04-03T03:37:59.626Z,18.09
2016-04-03T03:38:59.598Z,18.05
2016-04-03T03:40:02.867Z,18.03
2016-04-03T03:40:59.509Z,18.08
2016-04-03T03:42:05.528Z,18.03
2016-04-03T03:43:02.405Z,18.06
2016-04-03T03:43:59.361Z,18.05
2016-04-03T03:44:59.520Z,18.09
2016-04-03T03:45:59.258Z,18.06
2016-04-03T03:46:59.526Z,18.05
2016-04-03T03:47:59.185Z,18.08
2016-04-03T03:48:59.125Z,18.09
2016-04-03T03:50:02.299Z,18.06
2016-04-03T03:51:02.068Z,18.05
2016-04-03T03:51:58.992Z,18.05
2016-04-03T03:52:58.932Z,18.03
2016-04-03T03:53:58.904Z,18.05
2016-04-03T03:54:59.235Z,18
2016-04-03T03:55:58.785Z,18.05
2016-04-03T03:56:58.772Z,18.02
2016-04-03T03:57:58.931Z,17.97
2016-04-03T03:58:58.668Z,18.03
2016-04-03T03:59:58.624Z,18
2016-04-03T04:01:01.626Z,17.97
2016-04-03T04:01:58.535Z,18.05
2016-04-03T04:03:01.491Z,18.03
2016-04-03T04:03:58.431Z,18.03
2016-04-03T04:04:58.371Z,18.02
2016-04-03T04:05:58.545Z,18
2016-04-03T04:06:58.283Z,18.03
2016-04-03T04:08:01.270Z,17.98
2016-04-03T04:08:58.210Z,18.08
2016-04-03T04:09:58.135Z,17.98
2016-04-03T04:11:04.106Z,18.03
2016-04-03T04:11:58.062Z,18.08
2016-04-03T04:12:58.017Z,18.06
2016-04-03T04:13:57.973Z,18
2016-04-03T04:14:57.945Z,18.09
2016-04-03T04:15:57.885Z,17.97
2016-04-03T04:16:57.841Z,18.02
2016-04-03T04:17:57.983Z,18.03
2016-04-03T04:19:00.752Z,18.06
2016-04-03T04:19:57.692Z,18.06
2016-04-03T04:20:57.852Z,18.09
2016-04-03T04:22:00.605Z,17.97
2016-04-03T04:22:57.545Z,18.02
2016-04-03T04:23:57.485Z,17.98
2016-04-03T04:24:57.456Z,18.02
2016-04-03T04:25:57.412Z,18
2016-04-03T04:27:00.352Z,17.98
2016-04-03T04:28:00.324Z,17.97
2016-04-03T04:28:57.295Z,18.06
2016-04-03T04:30:00.236Z,18
2016-04-03T04:30:57.191Z,18.05
2016-04-03T04:32:00.350Z,18.02
2016-04-03T04:32:57.072Z,18.02
2016-04-03T04:33:57.543Z,18.06
2016-04-03T04:34:56.983Z,17.97
2016-04-03T04:35:57.173Z,18.03
2016-04-03T04:37:00.113Z,18.06
2016-04-03T04:37:59.835Z,18.09
2016-04-03T04:38:56.790Z,18.03
2016-04-03T04:39:59.746Z,18.05
2016-04-03T04:40:56.702Z,18.03
2016-04-03T04:41:56.705Z,17.97
2016-04-03T04:42:56.614Z,18.03
2016-04-03T04:43:56.570Z,18.06
2016-04-03T04:44:56.917Z,18
2016-04-03T04:45:56.481Z,18.03
2016-04-03T04:46:56.437Z,18.03
2016-04-03T04:47:56.392Z,18
2016-04-03T04:48:56.552Z,18.03
2016-04-03T04:50:02.289Z,17.97
2016-04-03T04:50:56.448Z,17.98
2016-04-03T04:51:56.200Z,18.05
2016-04-03T04:52:56.172Z,18.05
2016-04-03T04:53:56.112Z,18.02
2016-04-03T04:54:59.052Z,18.05
2016-04-03T04:55:59.227Z,18.05
2016-04-03T04:56:55.963Z,18.05
2016-04-03T04:57:58.936Z,18.05
2016-04-03T04:58:58.876Z,17.97
2016-04-03T04:59:59.035Z,17.97
2016-04-03T05:00:55.975Z,18.02
2016-04-03T05:01:59.040Z,18.03
2016-04-03T05:02:55.683Z,18.03
2016-04-03T05:03:55.639Z,17.97
2016-04-03T05:04:54.845Z,18
2016-04-03T05:05:55.551Z,18.05
2016-04-03T05:06:55.507Z,17.95
2016-04-03T05:07:55.526Z,18
2016-04-03T05:08:58.418Z,18.02
2016-04-03T05:09:55.343Z,18
2016-04-03T05:10:55.314Z,18.02
2016-04-03T05:11:58.286Z,17.95
2016-04-03T05:12:55.257Z,17.97
2016-04-03T05:13:55.166Z,18.02
2016-04-03T05:15:01.361Z,18
2016-04-03T05:15:58.259Z,18
2016-04-03T05:16:58.016Z,17.95
2016-04-03T05:17:54.960Z,17.97
2016-04-03T05:19:01.328Z,18.02
2016-04-03T05:19:54.826Z,18
2016-04-03T05:20:54.825Z,18.03
2016-04-03T05:21:55.027Z,18
2016-04-03T05:22:54.697Z,18
2016-04-03T05:23:54.634Z,18
2016-04-03T05:24:54.604Z,17.97
2016-04-03T05:25:57.558Z,17.98
2016-04-03T05:26:54.481Z,17.97
2016-04-03T05:27:54.467Z,17.98
2016-04-03T05:28:54.437Z,17.95
2016-04-03T05:29:54.345Z,17.95
2016-04-03T05:30:54.316Z,18.02
2016-04-03T05:31:54.240Z,18
2016-04-03T05:32:54.212Z,17.98
2016-04-03T05:33:54.151Z,18.03
2016-04-03T05:34:54.638Z,17.98
2016-04-03T05:35:57.297Z,17.94
2016-04-03T05:37:00.018Z,17.95
2016-04-03T05:37:53.973Z,18.02
2016-04-03T05:38:54.226Z,18.02
2016-04-03T05:39:53.884Z,18.03
2016-04-03T05:40:53.840Z,18.02
2016-04-03T05:41:53.781Z,18
2016-04-03T05:42:56.751Z,17.94
2016-04-03T05:43:59.707Z,18.02
2016-04-03T05:44:56.663Z,17.97
2016-04-03T05:45:53.587Z,17.95
2016-04-03T05:46:57.075Z,17.95
2016-04-03T05:47:56.514Z,18.03
2016-04-03T05:48:53.470Z,17.98
2016-04-03T05:49:53.411Z,18.02
2016-04-03T05:50:53.430Z,18
2016-04-03T05:51:53.338Z,18
2016-04-03T05:52:53.122Z,17.97
2016-04-03T05:53:56.250Z,17.97
2016-04-03T05:54:56.206Z,18
2016-04-03T05:55:53.177Z,18
2016-04-03T05:56:53.102Z,17.91
2016-04-03T05:57:53.058Z,17.98
2016-04-03T05:58:52.998Z,18.02
2016-04-03T05:59:52.985Z,17.91
2016-04-03T06:00:52.894Z,17.98
2016-04-03T06:01:52.896Z,18.02
2016-04-03T06:02:55.837Z,18
2016-04-03T06:03:58.777Z,18
2016-04-03T06:04:58.733Z,18
2016-04-03T06:05:52.686Z,17.93
2016-04-03T06:06:52.610Z,17.94
2016-04-03T06:07:55.598Z,17.93
2016-04-03T06:08:52.538Z,17.95
2016-04-03T06:09:52.712Z,17.93
2016-04-03T06:10:55.434Z,17.93
2016-04-03T06:11:52.390Z,17.98
2016-04-03T06:12:55.361Z,17.98
2016-04-03T06:13:52.317Z,17.93
2016-04-03T06:14:52.257Z,17.93
2016-04-03T06:15:52.197Z,17.93
2016-04-03T06:16:55.168Z,17.95
2016-04-03T06:17:52.515Z,17.98
2016-04-03T06:18:52.064Z,18.05
2016-04-03T06:19:52.005Z,18.02
2016-04-03T06:20:51.976Z,17.94
2016-04-03T06:21:54.964Z,18
2016-04-03T06:22:51.872Z,17.94
2016-04-03T06:23:54.859Z,18.05
2016-04-03T06:24:54.784Z,17.98
2016-04-03T06:25:51.740Z,17.93
2016-04-03T06:26:51.695Z,18.03
2016-04-03T06:27:51.652Z,17.97
2016-04-03T06:28:51.608Z,17.91
2016-04-03T06:29:54.578Z,17.9
2016-04-03T06:30:54.503Z,18
2016-04-03T06:31:54.459Z,17.91
2016-04-03T06:32:51.415Z,17.91
2016-04-03T06:33:54.386Z,17.94
2016-04-03T06:34:51.530Z,18
2016-04-03T06:35:51.266Z,17.91
2016-04-03T06:36:51.222Z,17.97
2016-04-03T06:37:51.163Z,17.91
2016-04-03T06:38:54.165Z,17.97
2016-04-03T06:39:51.090Z,18
2016-04-03T06:40:51.077Z,17.88
2016-04-03T06:41:54.017Z,17.9
2016-04-03T06:42:50.957Z,17.97
2016-04-03T06:43:50.898Z,17.88
2016-04-03T06:44:50.868Z,17.9
2016-04-03T06:45:51.028Z,18.08
2016-04-03T06:46:50.765Z,17.91
2016-04-03T06:47:57.034Z,17.95
2016-04-03T06:48:50.662Z,17.98
2016-04-03T06:49:53.476Z,17.94
2016-04-03T06:50:50.589Z,17.93
2016-04-03T06:51:53.544Z,17.91
2016-04-03T06:52:50.500Z,18.02
2016-04-03T06:53:51.331Z,17.91
2016-04-03T06:54:50.395Z,17.93
2016-04-03T06:55:53.336Z,17.97
2016-04-03T06:56:53.323Z,18.03
2016-04-03T06:57:50.264Z,17.88
2016-04-03T06:58:50.407Z,17.93
2016-04-03T06:59:50.159Z,17.93
2016-04-03T07:00:50.116Z,17.94
2016-04-03T07:01:49.914Z,17.97
2016-04-03T07:02:50.011Z,18.02
2016-04-03T07:03:49.967Z,17.9
2016-04-03T07:04:49.954Z,17.95
2016-04-03T07:05:50.082Z,17.93
2016-04-03T07:06:49.819Z,17.98
2016-04-03T07:07:49.805Z,17.91
2016-04-03T07:08:49.746Z,17.91
2016-04-03T07:09:52.890Z,17.95
2016-04-03T07:10:52.642Z,17.97
2016-04-03T07:11:49.614Z,18
2016-04-03T07:12:49.554Z,18.02
2016-04-03T07:13:49.510Z,18
2016-04-03T07:14:49.466Z,17.88
2016-04-03T07:15:49.391Z,17.97
2016-04-03T07:16:49.393Z,17.97
2016-04-03T07:17:52.349Z,18.03
2016-04-03T07:18:49.274Z,17.93
2016-04-03T07:19:52.229Z,17.97
2016-04-03T07:20:49.185Z,17.93
2016-04-03T07:21:49.110Z,17.95
2016-04-03T07:22:49.112Z,17.94
2016-04-03T07:23:49.037Z,17.97
2016-04-03T07:24:49.226Z,17.95
2016-04-03T07:25:48.948Z,17.9
2016-04-03T07:26:49.123Z,17.94
2016-04-03T07:27:48.844Z,17.94
2016-04-03T07:28:51.816Z,17.9
2016-04-03T07:29:48.772Z,17.93
2016-04-03T07:30:51.930Z,17.91
2016-04-03T07:31:48.683Z,17.9
2016-04-03T07:32:48.608Z,17.91
2016-04-03T07:33:48.845Z,17.94
2016-04-03T07:34:48.520Z,17.91
2016-04-03T07:35:48.492Z,17.93
2016-04-03T07:36:51.431Z,18
2016-04-03T07:37:51.403Z,18
2016-04-03T07:38:48.344Z,17.94
2016-04-03T07:39:48.299Z,18.03
2016-04-03T07:40:48.239Z,18
2016-04-03T07:41:48.194Z,17.98
2016-04-03T07:42:48.447Z,17.93
2016-04-03T07:43:48.107Z,17.88
2016-04-03T07:44:51.062Z,17.97
2016-04-03T07:45:48.018Z,17.91
2016-04-03T07:46:50.990Z,17.93
2016-04-03T07:47:47.929Z,18
2016-04-03T07:48:47.870Z,17.91
2016-04-03T07:49:48.122Z,17.98
2016-04-03T07:50:51.109Z,17.9
2016-04-03T07:51:47.878Z,17.98
2016-04-03T07:52:48.193Z,17.9
2016-04-03T07:53:47.649Z,17.91
2016-04-03T07:54:47.589Z,17.93
2016-04-03T07:55:47.560Z,17.97
2016-04-03T07:56:50.704Z,17.93
2016-04-03T07:57:47.456Z,17.93
2016-04-03T07:58:47.615Z,17.93
2016-04-03T07:59:47.665Z,18.06
2016-04-03T08:00:50.323Z,17.93
2016-04-03T08:01:47.264Z,17.9
2016-04-03T08:02:47.219Z,17.93
2016-04-03T08:03:56.207Z,17.9
2016-04-03T08:04:47.147Z,18
2016-04-03T08:05:50.306Z,17.94
2016-04-03T08:06:50.044Z,17.93
2016-04-03T08:07:46.999Z,18
2016-04-03T08:08:46.970Z,17.9
2016-04-03T08:09:46.910Z,17.94
2016-04-03T08:10:46.850Z,17.95
2016-04-03T08:11:46.822Z,18.02
2016-04-03T08:12:46.763Z,17.95
2016-04-03T08:13:49.733Z,17.98
2016-04-03T08:14:49.658Z,17.91
2016-04-03T08:15:49.833Z,17.95
2016-04-03T08:16:46.788Z,17.91
2016-04-03T08:17:46.526Z,17.98
2016-04-03T08:18:46.762Z,17.91
2016-04-03T08:19:49.421Z,17.88
2016-04-03T08:20:49.409Z,17.94
2016-04-03T08:21:49.536Z,17.94
2016-04-03T08:22:49.508Z,17.9
2016-04-03T08:23:49.245Z,18.02
2016-04-03T08:24:49.232Z,17.93
2016-04-03T08:25:49.157Z,17.91
2016-04-03T08:26:46.332Z,17.91
2016-04-03T08:27:49.287Z,17.98
2016-04-03T08:28:49.009Z,17.93
2016-04-03T08:29:46.481Z,17.93
2016-04-03T08:30:45.920Z,18
2016-04-03T08:31:45.923Z,17.97
2016-04-03T08:32:49.035Z,17.87
2016-04-03T08:33:45.787Z,17.91
2016-04-03T08:34:45.744Z,17.91
2016-04-03T08:35:45.668Z,17.93
2016-04-03T08:36:45.655Z,17.94
2016-04-03T08:37:45.611Z,17.95
2016-04-03T08:38:48.738Z,17.97
2016-04-03T08:39:45.522Z,17.91
2016-04-03T08:40:45.525Z,17.95
2016-04-03T08:41:45.465Z,17.97
2016-04-03T08:42:48.374Z,17.95
2016-04-03T08:43:48.314Z,17.97
2016-04-03T08:44:45.271Z,17.95
2016-04-03T08:45:45.257Z,17.97
2016-04-03T08:46:45.166Z,17.9
2016-04-03T08:47:45.168Z,17.94
2016-04-03T08:48:45.077Z,17.9
2016-04-03T08:49:45.034Z,17.95
2016-04-03T08:50:45.004Z,17.95
2016-04-03T08:51:44.976Z,17.94
2016-04-03T08:52:44.885Z,17.98
2016-04-03T08:53:44.825Z,17.95
2016-04-03T08:54:51.031Z,17.9
2016-04-03T08:55:44.768Z,18
2016-04-03T08:56:44.020Z,18
2016-04-03T08:57:44.665Z,17.95
2016-04-03T08:58:47.620Z,17.98
2016-04-03T08:59:44.561Z,17.91
2016-04-03T09:00:44.516Z,17.9
2016-04-03T09:01:44.675Z,17.95
2016-04-03T09:02:44.444Z,17.9
2016-04-03T09:03:47.414Z,17.98
2016-04-03T09:04:44.339Z,17.94
2016-04-03T09:05:44.311Z,17.95
2016-04-03T09:06:44.236Z,17.97
2016-04-03T09:07:46.985Z,17.94
2016-04-03T09:08:47.154Z,17.94
2016-04-03T09:09:50.110Z,17.95
2016-04-03T09:10:44.082Z,17.95
2016-04-03T09:11:50.224Z,17.93
2016-04-03T09:12:43.962Z,17.95
2016-04-03T09:13:47.136Z,18
2016-04-03T09:14:43.873Z,18.05
2016-04-03T09:15:43.829Z,17.87
2016-04-03T09:16:43.785Z,17.94
2016-04-03T09:17:46.741Z,18.02
2016-04-03T09:18:43.884Z,17.98
2016-04-03T09:19:43.762Z,17.95
2016-04-03T09:20:43.609Z,17.98
2016-04-03T09:21:43.533Z,17.98
2016-04-03T09:22:43.504Z,17.95
2016-04-03T09:23:44.350Z,17.95
2016-04-03T09:24:43.416Z,17.94
2016-04-03T09:25:43.355Z,17.91
2016-04-03T09:26:43.499Z,17.98
2016-04-03T09:27:42.517Z,17.94
2016-04-03T09:28:43.224Z,17.95
2016-04-03T09:29:43.195Z,17.91
2016-04-03T09:30:43.150Z,18
2016-04-03T09:31:43.075Z,17.97
2016-04-03T09:32:43.046Z,17.95
2016-04-03T09:33:43.269Z,17.94
2016-04-03T09:34:42.943Z,17.91
2016-04-03T09:35:45.899Z,17.94
2016-04-03T09:36:45.854Z,17.95
2016-04-03T09:37:42.826Z,17.95
2016-04-03T09:38:42.784Z,17.97
2016-04-03T09:39:42.708Z,17.95
2016-04-03T09:40:42.648Z,17.93
2016-04-03T09:41:42.604Z,17.95
2016-04-03T09:42:42.887Z,17.95
2016-04-03T09:43:48.531Z,17.95
2016-04-03T09:44:42.472Z,17.93
2016-04-03T09:45:45.459Z,17.94
2016-04-03T09:46:48.398Z,17.87
2016-04-03T09:47:45.339Z,17.95
2016-04-03T09:48:42.373Z,17.97
2016-04-03T09:49:45.250Z,17.94
2016-04-03T09:50:42.519Z,17.93
2016-04-03T09:51:42.147Z,17.93
2016-04-03T09:52:42.134Z,17.97
2016-04-03T09:53:42.059Z,17.86
2016-04-03T09:54:45.014Z,17.84
2016-04-03T09:55:42.360Z,17.97
2016-04-03T09:56:44.925Z,17.93
2016-04-03T09:57:41.850Z,17.98
2016-04-03T09:58:45.055Z,17.9
2016-04-03T09:59:41.777Z,17.95
2016-04-03T10:00:41.733Z,17.98
2016-04-03T10:01:44.689Z,17.91
2016-04-03T10:02:41.827Z,17.93
2016-04-03T10:03:41.582Z,17.94
2016-04-03T10:04:44.586Z,17.94
2016-04-03T10:05:44.583Z,17.97
2016-04-03T10:06:45.577Z,17.93
2016-04-03T10:07:41.409Z,17.91
2016-04-03T10:08:41.348Z,17.91
2016-04-03T10:09:41.617Z,17.98
2016-04-03T10:10:41.259Z,17.93
2016-04-03T10:11:41.248Z,17.93
2016-04-03T10:12:41.172Z,17.97
2016-04-03T10:13:41.112Z,17.98
2016-04-03T10:14:41.068Z,17.91
2016-04-03T10:15:41.258Z,17.93
2016-04-03T10:16:40.995Z,17.93
2016-04-03T10:17:40.935Z,17.93
2016-04-03T10:18:43.891Z,17.95
2016-04-03T10:19:40.956Z,17.95
2016-04-03T10:20:40.834Z,17.94
2016-04-03T10:21:40.758Z,17.91
2016-04-03T10:22:40.714Z,17.97
2016-04-03T10:23:40.639Z,17.98
2016-04-03T10:24:43.611Z,17.94
2016-04-03T10:25:40.566Z,17.91
2016-04-03T10:26:40.506Z,17.94
2016-04-03T10:27:40.493Z,17.94
2016-04-03T10:28:43.418Z,17.91
2016-04-03T10:29:40.577Z,18
2016-04-03T10:30:43.330Z,17.95
2016-04-03T10:31:43.286Z,17.95
2016-04-03T10:32:40.241Z,17.94
2016-04-03T10:33:43.229Z,17.94
2016-04-03T10:34:40.121Z,17.91
2016-04-03T10:35:40.093Z,17.93
2016-04-03T10:36:40.345Z,17.94
2016-04-03T10:37:40.051Z,17.91
2016-04-03T10:38:39.960Z,17.98
2016-04-03T10:39:39.901Z,17.91
2016-04-03T10:40:39.857Z,17.94
2016-04-03T10:41:39.828Z,17.8
2016-04-03T10:42:48.784Z,17.91
2016-04-03T10:43:39.912Z,17.93
2016-04-03T10:44:39.680Z,17.98
2016-04-03T10:45:39.620Z,17.93
2016-04-03T10:46:39.873Z,17.91
2016-04-03T10:47:42.548Z,17.9
2016-04-03T10:48:39.487Z,17.98
2016-04-03T10:49:42.647Z,17.93
2016-04-03T10:50:42.399Z,17.9
2016-04-03T10:51:42.339Z,17.9
2016-04-03T10:52:42.325Z,17.9
2016-04-03T10:53:39.235Z,17.95
2016-04-03T10:54:39.222Z,17.9
2016-04-03T10:55:39.163Z,17.95
2016-04-03T10:56:39.119Z,17.94
2016-04-03T10:57:39.058Z,17.97
2016-04-03T10:58:39.014Z,17.95
2016-04-03T10:59:38.969Z,17.93
2016-04-03T11:00:38.926Z,17.91
2016-04-03T11:01:38.865Z,17.94
2016-04-03T11:02:38.915Z,17.94
2016-04-03T11:03:38.777Z,17.9
2016-04-03T11:04:38.733Z,17.98
2016-04-03T11:05:38.705Z,17.94
2016-04-03T11:06:38.630Z,17.97
2016-04-03T11:07:38.609Z,17.98
2016-04-03T11:08:38.548Z,17.95
2016-04-03T11:09:38.489Z,17.93
2016-04-03T11:10:38.476Z,17.98
2016-04-03T11:11:44.432Z,17.9
2016-04-03T11:12:38.373Z,17.98
2016-04-03T11:13:41.343Z,17.98
2016-04-03T11:14:41.612Z,17.98
2016-04-03T11:15:38.239Z,17.94
2016-04-03T11:16:38.195Z,17.95
2016-04-03T11:17:44.166Z,17.9
2016-04-03T11:18:44.106Z,17.95
2016-04-03T11:19:38.047Z,17.94
2016-04-03T11:20:41.003Z,17.91
2016-04-03T11:21:37.927Z,17.93
2016-04-03T11:22:41.117Z,17.93
2016-04-03T11:23:41.167Z,17.9
2016-04-03T11:24:40.872Z,17.94
2016-04-03T11:25:37.782Z,17.94
2016-04-03T11:26:40.722Z,17.86
2016-04-03T11:27:37.866Z,17.88
2016-04-03T11:28:37.634Z,17.9
2016-04-03T11:29:37.605Z,17.93
2016-04-03T11:30:37.530Z,17.94
2016-04-03T11:31:37.517Z,17.93
2016-04-03T11:32:37.441Z,17.86
2016-04-03T11:33:40.429Z,17.91
2016-04-03T11:34:37.368Z,17.95
2016-04-03T11:35:40.324Z,17.95
2016-04-03T11:36:40.280Z,17.95
2016-04-03T11:37:37.205Z,17.93
2016-04-03T11:38:40.161Z,17.93
2016-04-03T11:39:37.304Z,17.91
2016-04-03T11:40:36.932Z,17.91
2016-04-03T11:41:37.012Z,17.9
2016-04-03T11:42:37.015Z,17.93
2016-04-03T11:43:45.939Z,17.95
2016-04-03T11:44:36.864Z,17.93
2016-04-03T11:45:36.836Z,17.9
2016-04-03T11:46:36.823Z,17.87
2016-04-03T11:47:36.732Z,17.9
2016-04-03T11:48:39.719Z,17.94
2016-04-03T11:49:39.675Z,17.93
2016-04-03T11:50:36.584Z,17.91
2016-04-03T11:51:39.571Z,17.91
2016-04-03T11:52:36.527Z,17.82
2016-04-03T11:53:42.655Z,17.9
2016-04-03T11:54:39.423Z,17.84
2016-04-03T11:55:39.363Z,17.9
2016-04-03T11:56:36.319Z,17.87
2016-04-03T11:57:36.290Z,17.94
2016-04-03T11:58:36.230Z,17.93
2016-04-03T11:59:36.216Z,17.82
2016-04-03T12:00:39.204Z,17.95
2016-04-03T12:01:36.302Z,17.9
2016-04-03T12:02:39.038Z,17.88
2016-04-03T12:03:36.321Z,17.95
2016-04-03T12:04:36.138Z,17.88
2016-04-03T12:05:35.891Z,17.94
2016-04-03T12:06:38.877Z,17.91
2016-04-03T12:07:38.817Z,17.87
2016-04-03T12:08:38.773Z,17.94
2016-04-03T12:09:35.573Z,17.91
2016-04-03T12:10:35.654Z,17.9
2016-04-03T12:11:38.625Z,17.93
2016-04-03T12:12:35.784Z,17.86
2016-04-03T12:13:38.521Z,17.87
2016-04-03T12:14:35.492Z,17.9
2016-04-03T12:15:38.448Z,17.9
2016-04-03T12:16:35.388Z,17.88
2016-04-03T12:17:35.345Z,17.93
2016-04-03T12:18:35.315Z,17.9
2016-04-03T12:19:35.286Z,17.94
2016-04-03T12:20:38.243Z,17.9
2016-04-03T12:21:35.167Z,17.86
2016-04-03T12:22:35.123Z,17.91
2016-04-03T12:23:35.063Z,17.88
2016-04-03T12:24:35.003Z,17.93
2016-04-03T12:25:34.959Z,17.95
2016-04-03T12:26:34.930Z,17.93
2016-04-03T12:27:34.887Z,17.82
2016-04-03T12:28:34.827Z,17.91
2016-04-03T12:29:34.783Z,17.9
2016-04-03T12:30:34.739Z,17.91
2016-04-03T12:31:37.663Z,17.93
2016-04-03T12:32:34.650Z,17.9
2016-04-03T12:33:34.575Z,17.95
2016-04-03T12:34:34.624Z,17.82
2016-04-03T12:35:34.503Z,17.87
2016-04-03T12:36:34.458Z,17.9
2016-04-03T12:37:34.398Z,17.95
2016-04-03T12:38:34.385Z,17.91
2016-04-03T12:39:37.324Z,17.95
2016-04-03T12:40:34.250Z,17.87
2016-04-03T12:41:34.222Z,17.95
2016-04-03T12:42:34.177Z,17.91
2016-04-03T12:43:34.133Z,17.86
2016-04-03T12:44:34.105Z,17.91
2016-04-03T12:45:34.029Z,17.88
2016-04-03T12:46:37.282Z,17.9
2016-04-03T12:47:36.972Z,17.9
2016-04-03T12:48:36.897Z,17.87
2016-04-03T12:49:33.837Z,17.87
2016-04-03T12:50:33.855Z,17.91
2016-04-03T12:51:33.968Z,17.94
2016-04-03T12:52:36.704Z,17.9
2016-04-03T12:53:36.660Z,17.91
2016-04-03T12:54:34.022Z,17.93
2016-04-03T12:55:33.556Z,17.93
2016-04-03T12:56:33.387Z,17.95
2016-04-03T12:57:33.468Z,17.94
2016-04-03T12:58:33.408Z,17.93